Time;durP1;ratioP1;P1;durP2;ratioP2;P2;SDS_P1;SDS_P2;PMS_P1;PMS_P2;Temp;Humidity;BMP_temperature;BMP_pressure;BME280_temperature;BME280_humidity;BME280_pressure;Samples;Min_cycle;Max_cycle;Signal;HPM_P1;HPM_P2
2023/05/27 00:01:43;;;;;;;1999.90;999.90;;;;;;;16.00;100.00;95923.69;5063944;28;20243;-63
2023/05/27 00:04:08;;;;;;;1999.90;999.90;;;;;;;16.00;100.00;95915.41;5063610;28;20205;-63
2023/05/27 00:06:33;;;;;;;1999.90;999.90;;;;;;;15.89;100.00;95917.59;5063768;28;20185;-63
2023/05/27 00:08:59;;;;;;;1999.90;999.90;;;;;;;15.88;100.00;95921.56;5047084;28;20197;-62
2023/05/27 00:11:25;;;;;;;1999.90;999.90;;;;;;;15.85;100.00;95922.41;5047357;28;20231;-61
2023/05/27 00:13:50;;;;;;;1999.90;999.90;;;;;;;15.76;100.00;95913.16;5064132;28;20181;-63
2023/05/27 00:16:16;;;;;;;1999.90;999.90;;;;;;;15.70;100.00;95910.13;5047215;28;20397;-61
2023/05/27 00:18:42;;;;;;;1999.90;999.90;;;;;;;15.70;100.00;95907.38;5063579;28;20181;-62
2023/05/27 00:21:07;;;;;;;1999.90;999.90;;;;;;;15.62;100.00;95914.22;5063501;28;20193;-62
2023/05/27 00:23:32;;;;;;;1999.90;999.90;;;;;;;15.61;100.00;95912.69;5046786;28;20224;-62
2023/05/27 00:25:58;;;;;;;1999.90;999.90;;;;;;;15.55;100.00;95914.38;5064043;28;20169;-62
2023/05/27 00:28:23;;;;;;;1999.90;999.90;;;;;;;15.49;100.00;95916.06;5063959;28;20311;-62
2023/05/27 00:30:49;;;;;;;1999.90;999.90;;;;;;;15.37;100.00;95915.91;5063891;28;20203;-62
2023/05/27 00:33:14;;;;;;;1999.90;999.90;;;;;;;15.26;100.00;95916.03;5046796;28;20189;-62
2023/05/27 00:35:40;;;;;;;1999.90;999.90;;;;;;;15.20;100.00;95912.25;5063923;28;20247;-62
2023/05/27 00:38:05;;;;;;;1999.90;999.90;;;;;;;15.10;100.00;95910.44;5046737;28;20205;-62
2023/05/27 00:40:32;;;;;;;1999.90;999.90;;;;;;;15.13;100.00;95915.13;5047110;28;20199;-62
2023/05/27 00:42:57;;;;;;;1999.90;999.90;;;;;;;15.07;100.00;95916.78;5067535;28;20212;-63
2023/05/27 00:45:23;;;;;;;1999.90;999.90;;;;;;;14.96;100.00;95915.41;5067827;28;20205;-62
2023/05/27 00:47:49;;;;;;;1999.90;999.90;;;;;;;14.96;100.00;95910.69;5050704;28;20296;-62
2023/05/27 00:50:15;;;;;;;1999.90;999.90;;;;;;;14.92;100.00;95909.97;5067821;28;20194;-62
2023/05/27 00:52:40;;;;;;;1999.90;999.90;;;;;;;14.86;100.00;95908.88;5067270;28;20206;-62
2023/05/27 00:55:07;;;;;;;1999.90;999.90;;;;;;;14.84;100.00;95903.03;5050631;28;20184;-63
2023/05/27 00:57:33;;;;;;;1999.90;999.90;;;;;;;14.70;100.00;95913.47;5067915;28;20263;-62
2023/05/27 00:59:58;;;;;;;1999.90;999.90;;;;;;;14.71;100.00;95904.03;5050879;28;20190;-63
2023/05/27 01:02:24;;;;;;;1999.90;999.90;;;;;;;14.66;100.00;95913.53;5067392;28;20213;-62
2023/05/27 01:04:50;;;;;;;1999.90;999.90;;;;;;;14.66;100.00;95897.03;5050426;28;20202;-62
2023/05/27 01:07:33;;;;;;;1999.90;999.90;;;;;;;14.63;100.00;95902.56;5066895;28;20221;-62
2023/05/27 01:10:07;;;;;;;1999.90;999.90;;;;;;;14.62;100.00;95896.31;5067106;28;20221;-61
2023/05/27 01:12:58;;;;;;;1999.90;999.90;;;;;;;14.58;100.00;95895.59;5050469;28;20221;-61
2023/05/27 01:15:23;;;;;;;1999.90;999.90;;;;;;;14.50;100.00;95899.63;5006535;28;20186;-61
2023/05/27 01:17:54;;;;;;;1999.90;999.90;;;;;;;14.40;100.00;95903.34;5050265;28;20243;-61
2023/05/27 01:20:20;;;;;;;1999.90;999.90;;;;;;;14.43;100.00;95883.28;5066737;28;20268;-61
2023/05/27 01:22:46;;;;;;;1999.90;999.90;;;;;;;14.39;100.00;95890.75;5050149;28;20198;-63
2023/05/27 01:25:11;;;;;;;1999.90;999.90;;;;;;;14.31;100.00;95888.56;5050111;28;20213;-62
2023/05/27 01:27:40;;;;;;;1999.90;999.90;;;;;;;14.30;100.00;95887.78;5066625;28;20194;-62
2023/05/27 01:30:06;;;;;;;1999.90;999.90;;;;;;;14.30;100.00;95885.03;5066676;28;20194;-62
2023/05/27 01:32:54;;;;;;;1999.90;999.90;;;;;;;14.28;100.00;95881.91;5066442;28;20201;-62
2023/05/27 01:35:22;;;;;;;1999.90;999.90;;;;;;;14.24;100.00;95881.19;5049840;28;20236;-62
2023/05/27 01:37:50;;;;;;;1999.90;999.90;;;;;;;14.18;100.00;95882.03;5049617;28;20202;-63
2023/05/27 01:40:17;;;;;;;1999.90;999.90;;;;;;;14.07;100.00;95879.44;5050255;28;20201;-62
2023/05/27 01:42:43;;;;;;;1999.90;999.90;;;;;;;14.00;100.00;95876.78;5049770;28;20201;-62
2023/05/27 01:45:09;;;;;;;1999.90;999.90;;;;;;;14.05;100.00;95873.56;5066154;28;20210;-61
2023/05/27 01:47:35;;;;;;;1999.90;999.90;;;;;;;14.04;100.00;95876.72;5066144;28;20247;-61
2023/05/27 01:50:01;;;;;;;1999.90;999.90;;;;;;;13.94;100.00;95878.44;5066412;28;20193;-61
2023/05/27 01:52:27;;;;;;;1999.90;999.90;;;;;;;13.97;100.00;95877.63;5065731;28;20197;-61
2023/05/27 01:54:52;;;;;;;1999.90;999.90;;;;;;;13.93;100.00;95871.41;5049452;28;20200;-61
2023/05/27 01:57:18;;;;;;;1999.90;999.90;;;;;;;13.87;100.00;95873.03;5066452;28;20280;-61
2023/05/27 01:59:43;;;;;;;1999.90;999.90;;;;;;;13.83;100.00;95872.31;5065905;28;20193;-61
2023/05/27 02:02:08;;;;;;;1999.90;999.90;;;;;;;13.80;100.00;95867.63;5066104;28;20201;-62
2023/05/27 02:04:34;;;;;;;1999.90;999.90;;;;;;;13.82;100.00;95865.28;5066063;28;20221;-62
2023/05/27 02:07:00;;;;;;;1999.90;999.90;;;;;;;13.75;100.00;95867.31;5049408;28;20208;-61
2023/05/27 02:09:25;;;;;;;1999.90;999.90;;;;;;;13.70;100.00;95863.06;5066278;28;20181;-61
2023/05/27 02:11:50;;;;;;;1999.90;999.90;;;;;;;13.69;100.00;95861.50;5049768;28;20232;-61
2023/05/27 02:14:16;;;;;;;1999.90;999.90;;;;;;;13.67;100.00;95863.91;5065633;28;20190;-62
2023/05/27 02:16:42;;;;;;;1999.90;999.90;;;;;;;13.65;100.00;95860.00;5065673;28;20198;-62
2023/05/27 02:19:07;;;;;;;1999.90;999.90;;;;;;;13.65;100.00;95860.78;5065578;28;20201;-62
2023/05/27 02:21:33;;;;;;;1999.90;999.90;;;;;;;13.62;100.00;95861.59;5065879;28;20198;-62
2023/05/27 02:23:58;;;;;;;1999.90;999.90;;;;;;;13.57;100.00;95862.06;5065670;28;20220;-62
2023/05/27 02:26:24;;;;;;;1999.90;999.90;;;;;;;13.53;100.00;95857.78;5065496;28;20277;-62
2023/05/27 02:28:50;;;;;;;1999.90;999.90;;;;;;;13.53;100.00;95855.84;5048975;28;20264;-61
2023/05/27 02:31:16;;;;;;;1999.90;999.90;;;;;;;13.51;100.00;95860.94;5048612;28;20194;-62
2023/05/27 02:33:41;;;;;;;1999.90;999.90;;;;;;;13.42;100.00;95855.19;5065474;28;20193;-62
2023/05/27 02:36:06;;;;;;;1999.90;999.90;;;;;;;13.40;100.00;95852.06;5048949;28;20225;-61
2023/05/27 02:38:32;;;;;;;1999.90;999.90;;;;;;;13.36;100.00;95854.06;5048816;28;20197;-62
2023/05/27 02:40:58;;;;;;;1999.90;999.90;;;;;;;13.33;100.00;95849.38;5065116;28;20178;-61
2023/05/27 02:43:23;;;;;;;1999.90;999.90;;;;;;;13.31;100.00;95846.28;5065187;28;20277;-61
2023/05/27 02:45:48;;;;;;;1999.90;999.90;;;;;;;13.28;100.00;95844.38;5065184;28;20212;-61
2023/05/27 02:48:14;;;;;;;1999.90;999.90;;;;;;;13.21;100.00;95847.19;5048925;28;20213;-61
2023/05/27 02:50:39;;;;;;;1999.90;999.90;;;;;;;13.21;100.00;95845.22;5048136;28;20202;-62
2023/05/27 02:53:05;;;;;;;1999.90;999.90;;;;;;;13.18;100.00;95837.03;5065006;28;20193;-61
2023/05/27 02:55:30;;;;;;;1999.90;999.90;;;;;;;13.13;100.00;95843.75;5064788;28;20224;-61
2023/05/27 02:57:55;;;;;;;1999.90;999.90;;;;;;;13.15;100.00;95840.59;5064882;28;20194;-61
2023/05/27 03:00:21;;;;;;;1999.90;999.90;;;;;;;13.11;100.00;95842.59;5048140;28;20202;-61
2023/05/27 03:02:47;;;;;;;1999.90;999.90;;;;;;;13.08;100.00;95843.44;5064608;28;20202;-61
2023/05/27 03:05:13;;;;;;;1999.90;999.90;;;;;;;13.05;100.00;95838.75;5047655;28;20217;-61
2023/05/27 03:07:39;;;;;;;1999.90;999.90;;;;;;;13.00;100.00;95836.44;5064699;28;20205;-62
2023/05/27 03:10:05;;;;;;;1999.90;999.90;;;;;;;12.99;100.00;95834.88;5065247;28;20275;-63
2023/05/27 03:12:31;;;;;;;1999.90;999.90;;;;;;;12.97;100.00;95831.75;5048755;28;20198;-61
2023/05/27 03:14:56;;;;;;;1999.90;999.90;;;;;;;12.96;100.00;95830.19;5048194;28;20194;-62
2023/05/27 03:17:22;;;;;;;1999.90;999.90;;;;;;;12.92;100.00;95829.44;5064721;28;20201;-62
2023/05/27 03:19:48;;;;;;;1999.90;999.90;;;;;;;12.91;100.00;95822.41;5064566;28;20276;-62
2023/05/27 03:22:13;;;;;;;1999.90;999.90;;;;;;;12.83;100.00;95829.16;5048227;28;20194;-62
2023/05/27 03:24:39;;;;;;;1999.90;999.90;;;;;;;12.86;100.00;95826.38;5064410;28;20216;-62
2023/05/27 03:27:05;;;;;;;1999.90;999.90;;;;;;;12.82;100.00;95824.88;5064532;28;20200;-62
2023/05/27 03:29:31;;;;;;;1999.90;999.90;;;;;;;12.85;100.00;95824.03;5064278;28;20216;-62
2023/05/27 03:31:56;;;;;;;1999.90;999.90;;;;;;;12.84;100.00;95834.22;5047751;28;20186;-63
2023/05/27 03:34:22;;;;;;;1999.90;999.90;;;;;;;12.84;100.00;95827.97;5047731;28;20201;-62
2023/05/27 03:36:49;;;;;;;1999.90;999.90;;;;;;;12.82;100.00;95827.59;5064451;28;20197;-62
2023/05/27 03:39:15;;;;;;;1999.90;999.90;;;;;;;12.84;100.00;95825.22;5047248;28;20224;-63
2023/05/27 03:41:41;;;;;;;1999.90;999.90;;;;;;;12.85;100.00;95818.53;5047428;28;20185;-63
2023/05/27 03:44:06;;;;;;;1999.90;999.90;;;;;;;12.93;100.00;95818.06;5063988;28;20210;-63
2023/05/27 03:46:33;;;;;;;1999.90;999.90;;;;;;;12.96;100.00;95825.50;5064319;28;20193;-63
2023/05/27 03:48:59;;;;;;;1999.90;999.90;;;;;;;13.10;100.00;95828.13;5063741;28;20208;-63
2023/05/27 03:51:24;;;;;;;1999.90;999.90;;;;;;;13.26;100.00;95833.03;5063718;28;20193;-63
2023/05/27 03:53:50;;;;;;;1999.90;999.90;;;;;;;13.32;100.00;95836.09;5047490;28;20217;-63
2023/05/27 03:56:15;;;;;;;1999.90;999.90;;;;;;;13.36;100.00;95837.59;5063916;28;20193;-63
2023/05/27 03:58:41;;;;;;;1999.90;999.90;;;;;;;13.53;100.00;95828.38;5064547;28;20197;-64
2023/05/27 04:01:06;;;;;;;1999.90;999.90;;;;;;;13.76;100.00;95833.97;5047033;28;20274;-63
2023/05/27 04:03:31;;;;;;;1999.90;999.90;;;;;;;13.88;100.00;95838.88;5046985;28;20205;-63
2023/05/27 04:05:58;;;;;;;1999.90;999.90;;;;;;;14.06;100.00;95842.16;5063996;28;20194;-63
2023/05/27 04:08:25;;;;;;;1999.90;999.90;;;;;;;14.13;100.00;95850.31;5047284;28;20204;-63
2023/05/27 04:10:54;;;;;;;1999.90;999.90;;;;;;;14.43;100.00;95849.50;5047269;28;20204;-64
2023/05/27 04:13:20;;;;;;;1999.90;999.90;;;;;;;14.73;100.00;95850.19;5064152;28;20201;-62
2023/05/27 04:15:46;;;;;;;1999.90;999.90;;;;;;;15.00;100.00;95856.38;5047392;28;20242;-62
2023/05/27 04:18:11;;;;;;;1999.90;999.90;;;;;;;15.22;100.00;95863.06;5046767;28;20278;-62
2023/05/27 04:20:40;;;;;;;1999.90;999.90;;;;;;;15.48;100.00;95864.94;5047341;28;20212;-62
2023/05/27 04:23:06;;;;;;;1999.90;999.90;;;;;;;15.06;100.00;95862.97;5063752;28;20206;-62
2023/05/27 04:25:31;;;;;;;1999.90;999.90;;;;;;;15.23;100.00;95867.34;5063607;28;20222;-62
2023/05/27 04:27:57;;;;;;;1999.90;999.90;;;;;;;15.57;100.00;95867.13;5046817;28;20197;-63
2023/05/27 04:30:22;;;;;;;1999.90;999.90;;;;;;;15.83;100.00;95874.47;5046980;28;20207;-63
2023/05/27 04:32:48;;;;;;;1999.90;999.90;;;;;;;16.49;100.00;95877.00;5047166;28;20282;-63
2023/05/27 04:35:13;;;;;;;1999.90;999.90;;;;;;;16.38;100.00;95883.50;5047085;28;20251;-63
2023/05/27 04:37:40;;;;;;;1999.90;999.90;;;;;;;16.84;100.00;95870.63;5046762;28;20201;-62
2023/05/27 04:40:08;;;;;;;1999.90;999.90;;;;;;;16.86;100.00;95876.50;5063776;28;20197;-64
2023/05/27 04:42:36;;;;;;;1999.90;999.90;;;;;;;16.58;100.00;95885.44;5063903;28;20222;-63
2023/05/27 04:45:05;;;;;;;1999.90;999.90;;;;;;;16.81;100.00;95883.31;5063764;28;20221;-63
2023/05/27 04:47:36;;;;;;;1999.90;999.90;;;;;;;17.24;100.00;95877.47;5063871;28;20197;-63
2023/05/27 04:50:05;;;;;;;1999.90;999.90;;;;;;;17.65;100.00;95874.81;5047168;28;20269;-64
2023/05/27 04:52:36;;;;;;;1999.90;999.90;;;;;;;17.91;100.00;95870.91;5063145;28;20257;-66
2023/05/27 04:55:04;;;;;;;1999.90;999.90;;;;;;;18.16;100.00;95868.19;5046697;28;20213;-63
2023/05/27 04:57:29;;;;;;;1999.90;999.90;;;;;;;18.04;100.00;95874.47;5063821;28;20198;-66
2023/05/27 05:02:34;;;;;;;1999.90;999.90;;;;;;;19.03;100.00;95867.44;5064540;28;20247;-63
2023/05/27 05:05:14;;;;;;;1999.90;999.90;;;;;;;18.29;100.00;95869.75;5063514;28;20232;-63
2023/05/27 05:07:41;;;;;;;1999.90;999.90;;;;;;;18.57;100.00;95868.91;5063539;28;20201;-61
2023/05/27 05:10:07;;;;;;;1999.90;999.90;;;;;;;19.07;100.00;95868.09;5063567;28;20198;-61
2023/05/27 05:12:33;;;;;;;1999.90;999.90;;;;;;;18.83;100.00;95872.47;5063093;28;20221;-61
2023/05/27 05:14:58;;;;;;;1999.90;999.90;;;;;;;18.41;100.00;95876.53;5046693;28;20201;-61
2023/05/27 05:17:24;;;;;;;1999.90;999.90;;;;;;;18.20;100.00;95882.69;5063527;28;20238;-61
2023/05/27 05:19:51;;;;;;;1999.90;999.90;;;;;;;18.89;100.00;95873.44;5046584;28;20311;-61
2023/05/27 05:22:18;;;;;;;1999.90;999.90;;;;;;;19.97;100.00;95874.44;5063136;28;20198;-61
2023/05/27 05:24:47;;;;;;;1999.90;999.90;;;;;;;20.13;100.00;95877.00;5046328;28;20209;-61
2023/05/27 05:27:12;;;;;;;1999.90;999.90;;;;;;;19.36;100.00;95875.03;5064583;28;20248;-62
2023/05/27 05:29:38;;;;;;;1999.90;999.90;;;;;;;19.86;100.00;95876.81;5049945;28;20198;-62
2023/05/27 05:32:04;;;;;;;1999.90;999.90;;;;;;;20.98;100.00;95880.81;5050461;28;20185;-62
2023/05/27 05:34:29;;;;;;;1999.90;999.90;;;;;;;20.43;100.00;95883.81;5050351;28;20209;-62
2023/05/27 05:36:55;;;;;;;1999.90;999.90;;;;;;;20.63;100.00;95879.44;5049822;28;20194;-62
2023/05/27 05:39:20;;;;;;;1999.90;999.90;;;;;;;20.88;100.00;95887.56;5066913;28;20197;-62
2023/05/27 05:41:46;;;;;;;1999.90;999.90;;;;;;;20.52;100.00;95892.19;5049821;28;20209;-63
2023/05/27 05:44:12;;;;;;;1999.90;999.90;;;;;;;20.04;100.00;95893.59;5066649;28;20247;-62
2023/05/27 05:46:37;;;;;;;1999.90;999.90;;;;;;;19.55;100.00;95887.03;5049755;28;20203;-62
2023/05/27 05:49:02;;;;;;;1999.90;999.90;;;;;;;19.15;100.00;95891.53;5049717;28;20198;-61
2023/05/27 05:51:28;;;;;;;1999.90;999.90;;;;;;;19.08;100.00;95891.78;5066380;28;20194;-62
2023/05/27 05:53:53;;;;;;;1999.90;999.90;;;;;;;20.41;100.00;95902.91;5066200;28;20201;-62
2023/05/27 05:56:18;;;;;;;1999.90;999.90;;;;;;;20.47;100.00;95890.00;5066319;28;20224;-63
2023/05/27 05:58:44;;;;;;;1999.90;999.90;;;;;;;21.11;100.00;95889.81;5049705;28;20225;-62
2023/05/27 06:01:09;;;;;;;1999.90;999.90;;;;;;;20.33;100.00;95887.78;5049812;28;20197;-63
2023/05/27 06:03:35;;;;;;;1999.90;999.90;;;;;;;20.86;100.00;95884.47;5066066;28;20197;-63
2023/05/27 06:06:02;;;;;;;1999.90;999.90;;;;;;;20.53;100.00;95883.41;5066087;28;20197;-63
2023/05/27 06:08:28;;;;;;;1999.90;999.90;;;;;;;20.21;100.00;95891.41;5049781;28;20221;-62
2023/05/27 06:10:53;;;;;;;1999.90;999.90;;;;;;;19.93;100.00;95901.50;5066215;28;20194;-63
2023/05/27 06:13:18;;;;;;;1999.90;999.90;;;;;;;20.29;100.00;95896.22;5049091;28;20186;-63
2023/05/27 06:15:44;;;;;;;1999.90;999.90;;;;;;;20.98;100.00;95897.47;5065794;28;20259;-63
2023/05/27 06:18:09;;;;;;;1999.90;999.90;;;;;;;20.16;100.00;95895.53;5065789;28;20257;-62
2023/05/27 06:20:34;;;;;;;1999.90;999.90;;;;;;;20.38;100.00;95895.50;5065750;28;20194;-61
2023/05/27 06:23:00;;;;;;;1999.90;999.90;;;;;;;20.61;100.00;95900.56;5065560;28;20200;-61
2023/05/27 06:25:25;;;;;;;1999.90;999.90;;;;;;;20.39;100.00;95895.03;5065561;28;20210;-61
2023/05/27 06:27:50;;;;;;;1999.90;999.90;;;;;;;21.79;100.00;95897.66;5065958;28;20212;-61
2023/05/27 06:30:16;;;;;;;1999.90;999.90;;;;;;;21.42;100.00;95904.38;5048925;28;20194;-60
2023/05/27 06:32:41;;;;;;;1999.90;999.90;;;;;;;21.11;100.00;95900.94;5065819;28;20249;-62
2023/05/27 06:35:07;;;;;;;1999.90;999.90;;;;;;;21.38;100.00;95903.75;5048906;28;20182;-61
2023/05/27 06:37:32;;;;;;;1999.90;999.90;;;;;;;21.74;100.00;95909.38;5048836;28;20198;-60
2023/05/27 06:39:57;;;;;;;1999.90;999.90;;;;;;;21.24;100.00;95898.78;5047870;28;20253;-61
2023/05/27 06:42:23;;;;;;;1999.90;999.90;;;;;;;21.77;100.00;95891.78;5065564;28;20220;-60
2023/05/27 06:44:48;;;;;;;1999.90;999.90;;;;;;;21.23;100.00;95891.69;5065255;28;20208;-60
2023/05/27 06:47:14;;;;;;;1999.90;999.90;;;;;;;21.65;100.00;95892.69;5065219;28;20202;-60
2023/05/27 06:49:39;;;;;;;1999.90;999.90;;;;;;;21.59;100.00;95888.97;5048920;28;20253;-59
2023/05/27 06:52:05;;;;;;;1999.90;999.90;;;;;;;22.32;100.00;95886.91;5048388;28;20216;-60
2023/05/27 06:54:30;;;;;;;1999.90;999.90;;;;;;;22.50;93.70;95902.84;5048452;28;20223;-60
2023/05/27 06:56:56;;;;;;;1999.90;999.90;;;;;;;22.05;96.85;95896.09;5048321;28;20200;-60
2023/05/27 06:59:21;;;;;;;1999.90;999.90;;;;;;;20.73;100.00;95894.91;5064777;28;20239;-59
2023/05/27 07:01:46;;;;;;;1999.90;999.90;;;;;;;21.86;100.00;95897.31;5065049;28;20197;-59
2023/05/27 07:04:12;;;;;;;1999.90;999.90;;;;;;;22.88;93.29;95894.66;5064628;28;20232;-60
2023/05/27 07:06:37;;;;;;;1999.90;999.90;;;;;;;22.83;90.54;95892.53;5064974;28;20177;-60
2023/05/27 07:09:03;;;;;;;1999.90;999.90;;;;;;;24.27;81.95;95892.34;5065124;28;20198;-60
2023/05/27 07:11:28;;;;;;;1999.90;999.90;;;;;;;23.69;81.59;95900.56;5048389;28;20202;-60
2023/05/27 07:13:54;;;;;;;1999.90;999.90;;;;;;;23.40;82.91;95891.31;5064602;28;20220;-59
2023/05/27 07:16:19;;;;;;;1999.90;999.90;;;;;;;24.73;74.39;95892.66;5047880;28;20193;-59
2023/05/27 07:18:45;;;;;;;1999.90;999.90;;;;;;;25.08;71.85;95890.66;5064586;28;20193;-59
2023/05/27 07:21:10;;;;;;;1999.90;999.90;;;;;;;24.36;73.75;95891.47;5047927;28;20198;-61
2023/05/27 07:23:35;;;;;;;1999.90;999.90;;;;;;;24.94;70.63;95894.25;5064881;28;20257;-61
2023/05/27 07:26:01;;;;;;;1999.90;999.90;;;;;;;25.11;72.69;95886.88;5047802;28;20246;-60
2023/05/27 07:28:26;;;;;;;1999.90;999.90;;;;;;;24.21;73.08;95885.88;5047592;28;20193;-62
2023/05/27 07:30:51;;;;;;;1999.90;999.90;;;;;;;25.73;70.64;95892.84;5064816;28;20190;-61
2023/05/27 07:33:17;;;;;;;1999.90;999.90;;;;;;;26.63;61.16;95891.34;5048136;28;20197;-61
2023/05/27 07:35:43;;;;;;;1999.90;999.90;;;;;;;26.33;62.50;95886.44;5064008;28;20190;-61
2023/05/27 07:38:09;;;;;;;1999.90;999.90;;;;;;;25.91;63.14;95892.56;5047979;28;20174;-61
2023/05/27 07:40:35;;;;;;;1999.90;999.90;;;;;;;25.26;66.63;95885.59;5047229;28;20238;-61
2023/05/27 07:43:01;;;;;;;1999.90;999.90;;;;;;;25.08;68.08;95882.25;5047266;28;20198;-61
2023/05/27 07:45:26;;;;;;;1999.90;999.90;;;;;;;26.48;64.83;95882.25;5047352;28;20213;-60
2023/05/27 07:47:51;;;;;;;1999.90;999.90;;;;;;;26.72;57.57;95884.78;5064205;28;20194;-61
2023/05/27 07:50:17;;;;;;;1999.90;999.90;;;;;;;27.44;56.98;95891.72;5063493;28;20201;-61
2023/05/27 07:52:42;;;;;;;1999.90;999.90;;;;;;;26.06;59.39;95879.28;5047173;28;20225;-61
2023/05/27 07:55:08;;;;;;;1999.90;999.90;;;;;;;25.48;62.51;95893.53;5047378;28;20205;-60
2023/05/27 07:57:33;;;;;;;1999.90;999.90;;;;;;;24.67;69.23;95880.59;5063967;28;20216;-61
2023/05/27 07:59:59;;;;;;;1999.90;999.90;;;;;;;24.91;67.31;95890.41;5047951;28;20220;-61
2023/05/27 08:02:25;;;;;;;1999.90;999.90;;;;;;;25.79;66.08;95885.31;5047321;28;20209;-61
2023/05/27 08:04:50;;;;;;;1999.90;999.90;;;;;;;26.13;64.04;95890.06;5047821;28;20213;-60
2023/05/27 08:07:16;;;;;;;1999.90;999.90;;;;;;;24.90;66.39;95880.47;5047046;28;20185;-60
2023/05/27 08:09:41;;;;;;;1999.90;999.90;;;;;;;25.07;64.33;95891.91;5064432;28;20205;-60
2023/05/27 08:12:06;;;;;;;1999.90;999.90;;;;;;;24.98;69.30;95875.25;5063678;28;20213;-60
2023/05/27 08:14:32;;;;;;;1999.90;999.90;;;;;;;25.69;64.64;95872.72;5047521;28;20189;-59
2023/05/27 08:16:58;;;;;;;1999.90;999.90;;;;;;;24.78;69.18;95875.19;5063849;28;20198;-60
2023/05/27 08:19:23;;;;;;;1999.90;999.90;;;;;;;25.53;66.94;95873.25;5063532;28;20196;-59
2023/05/27 08:21:49;;;;;;;1999.90;999.90;;;;;;;26.46;63.65;95875.59;5063613;28;20197;-61
2023/05/27 08:24:14;;;;;;;1999.90;999.90;;;;;;;25.83;67.31;95868.28;5046784;28;20263;-61
2023/05/27 08:26:40;;;;;;;1999.90;999.90;;;;;;;26.91;62.98;95855.88;5064010;28;20202;-61
2023/05/27 08:29:05;;;;;;;1999.90;999.90;;;;;;;26.04;63.81;95870.59;5046977;28;20232;-61
2023/05/27 08:31:31;;;;;;;1999.90;999.90;;;;;;;25.59;67.17;95862.91;5063648;28;20269;-60
2023/05/27 08:33:56;;;;;;;1999.90;999.90;;;;;;;25.48;67.93;95871.16;5063687;28;20205;-60
2023/05/27 08:36:22;;;;;;;1999.90;999.90;;;;;;;25.79;67.02;95856.53;5046996;28;20269;-61
2023/05/27 08:38:47;;;;;;;1999.90;999.90;;;;;;;25.02;68.19;95861.84;5046808;28;20204;-60
2023/05/27 08:41:14;;;;;;;1999.90;999.90;;;;;;;26.12;66.60;95857.72;5047188;28;20208;-60
2023/05/27 08:43:40;;;;;;;1999.90;999.90;;;;;;;25.84;67.03;95855.81;5046966;28;20197;-58
2023/05/27 08:46:07;;;;;;;1999.90;999.90;;;;;;;26.71;63.82;95847.59;5047187;28;20201;-55
2023/05/27 08:48:32;;;;;;;1999.90;999.90;;;;;;;25.81;63.41;95860.38;5063405;28;20193;-55
2023/05/27 08:50:59;;;;;;;1999.90;999.90;;;;;;;26.88;63.24;95848.47;5063393;28;20201;-53
2023/05/27 08:53:26;;;;;;;1999.90;999.90;;;;;;;27.13;59.46;95867.25;5047109;28;20264;-55
2023/05/27 08:55:53;;;;;;;1999.90;999.90;;;;;;;27.26;63.67;95852.81;5063441;28;20193;-56
2023/05/27 08:58:19;;;;;;;1999.90;999.90;;;;;;;27.41;63.42;95848.59;5063420;28;20194;-58
2023/05/27 09:00:45;;;;;;;1999.90;999.90;;;;;;;28.81;58.16;95842.84;5063440;28;20194;-60
2023/05/27 09:03:10;;;;;;;1999.90;999.90;;;;;;;27.78;59.61;95845.66;5066123;28;20212;-59
2023/05/27 09:05:36;;;;;;;1999.90;999.90;;;;;;;27.03;60.55;95845.53;5050855;28;20205;-59
2023/05/27 09:08:01;;;;;;;1999.90;999.90;;;;;;;26.68;63.77;95848.56;5051003;28;20178;-59
2023/05/27 09:10:37;;;;;;;1999.90;999.90;;;;;;;27.64;61.68;95833.38;5050417;28;20208;-58
2023/05/27 09:13:02;;;;;;;1999.90;999.90;;;;;;;26.16;65.86;95841.47;5050281;28;20201;-59
2023/05/27 09:15:28;;;;;;;1999.90;999.90;;;;;;;27.11;63.45;95830.53;5050510;28;20224;-55
2023/05/27 09:17:53;;;;;;;1999.90;999.90;;;;;;;26.93;63.55;95830.16;5050437;28;20197;-53
2023/05/27 09:20:25;;;;;;;1999.90;999.90;;;;;;;26.92;64.26;95840.63;5066924;28;20198;-62
2023/05/27 09:22:56;;;;;;;1999.90;999.90;;;;;;;26.83;63.01;95843.59;5066841;28;20196;-55
2023/05/27 09:25:24;;;;;;;1999.90;999.90;;;;;;;25.51;72.06;95831.03;5066624;28;20231;-56
2023/05/27 09:27:49;;;;;;;1999.90;999.90;;;;;;;26.16;68.96;95851.88;5067132;28;20236;-55
2023/05/27 09:30:18;;;;;;;1999.90;999.90;;;;;;;25.73;70.09;95850.09;5050109;28;20198;-57
2023/05/27 09:32:44;;;;;;;1999.90;999.90;;;;;;;25.90;68.26;95840.66;5066365;28;20193;-56
2023/05/27 09:35:11;;;;;;;1999.90;999.90;;;;;;;25.91;70.44;95833.00;5050296;28;20169;-56
2023/05/27 09:37:36;;;;;;;1999.90;999.90;;;;;;;26.45;67.45;95820.84;5066990;28;20243;-56
2023/05/27 09:40:10;;;;;;;1999.90;999.90;;;;;;;26.22;68.65;95827.50;5050284;28;20206;-57
2023/05/27 09:42:46;;;;;;;1999.90;999.90;;;;;;;25.93;69.37;95828.44;5066301;28;20205;-51
2023/05/27 09:45:14;;;;;;;1999.90;999.90;;;;;;;26.64;66.57;95825.63;5066164;28;20219;-54
2023/05/27 09:47:41;;;;;;;1999.90;999.90;;;;;;;26.51;67.87;95833.63;5066214;28;20193;-56
2023/05/27 09:50:09;;;;;;;1999.90;999.90;;;;;;;26.14;67.06;95818.75;5066234;28;20197;-55
2023/05/27 09:52:37;;;;;;;1999.90;999.90;;;;;;;26.70;67.93;95812.38;5066604;28;20229;-56
2023/05/27 09:55:03;;;;;;;1999.90;999.90;;;;;;;26.19;70.57;95812.47;5066267;28;20224;-57
2023/05/27 09:57:30;;;;;;;1999.90;999.90;;;;;;;27.98;62.80;95800.59;5065607;28;20197;-54
2023/05/27 09:59:59;;;;;;;1999.90;999.90;;;;;;;26.73;66.14;95805.78;5066511;28;20170;-55
2023/05/27 10:02:25;;;;;;;1999.90;999.90;;;;;;;26.54;66.34;95810.22;5066188;28;20268;-55
2023/05/27 10:04:51;;;;;;;1999.90;999.90;;;;;;;26.09;64.86;95819.50;5065933;28;20205;-57
2023/05/27 10:07:22;;;;;;;1999.90;999.90;;;;;;;26.57;66.45;95802.84;5049119;28;20229;-55
2023/05/27 10:09:48;;;;;;;1999.90;999.90;;;;;;;26.42;67.14;95819.00;5066120;28;20320;-50
2023/05/27 10:12:15;;;;;;;1999.90;999.90;;;;;;;26.11;67.16;95810.59;5049478;28;20201;-52
2023/05/27 10:14:44;;;;;;;1999.90;999.90;;;;;;;26.08;66.80;95817.19;5065691;28;20206;-52
2023/05/27 10:17:10;;;;;;;1999.90;999.90;;;;;;;25.94;67.76;95802.00;5065777;28;20193;-53
2023/05/27 10:19:35;;;;;;;1999.90;999.90;;;;;;;26.03;66.09;95815.09;5065875;28;20197;-52
2023/05/27 10:22:09;;;;;;;1999.90;999.90;;;;;;;25.24;69.34;95807.00;5049406;28;20193;-53
2023/05/27 10:24:34;;;;;;;1999.90;999.90;;;;;;;25.76;67.81;95807.91;5065780;28;20228;-49
2023/05/27 10:27:04;;;;;;;1999.90;999.90;;;;;;;25.06;70.40;95801.66;5066192;28;20194;-51
2023/05/27 10:29:40;;;;;;;1999.90;999.90;;;;;;;25.97;63.40;95803.84;5065932;28;20204;-52
2023/05/27 10:32:05;;;;;;;1999.90;999.90;;;;;;;25.13;67.80;95801.25;5065381;28;20197;-52
2023/05/27 10:34:42;;;;;;;1999.90;999.90;;;;;;;25.22;66.50;95803.16;5065468;28;20205;-51
2023/05/27 10:37:07;;;;;;;1999.90;999.90;;;;;;;25.00;65.27;95797.25;5048708;28;20212;-50
2023/05/27 10:39:33;;;;;;;1999.90;999.90;;;;;;;25.86;63.86;95795.31;5048793;28;20189;-48
2023/05/27 10:41:59;;;;;;;1999.90;999.90;;;;;;;25.65;61.86;95796.59;5065370;28;20286;-50
2023/05/27 10:44:28;;;;;;;1999.90;999.90;;;;;;;25.54;63.07;95796.47;5065037;28;20205;-51
2023/05/27 10:47:00;;;;;;;1999.90;999.90;;;;;;;25.57;62.25;95789.88;5048039;28;20216;-55
2023/05/27 10:49:32;;;;;;;1999.90;999.90;;;;;;;24.00;68.23;95789.28;5065032;28;20201;-59